createdAt,value
2023-02-23T00:02:09.810Z,5.57
2023-02-23T00:04:41.134Z,7.03
2023-02-23T00:07:13.262Z,5.63
2023-02-23T00:09:44.502Z,5.75
2023-02-23T00:12:18.323Z,5.70
2023-02-23T00:14:49.719Z,6.15
2023-02-23T00:17:20.810Z,7.82
2023-02-23T00:19:52.282Z,6.25
2023-02-23T00:22:23.450Z,4.80
2023-02-23T00:24:55.401Z,6.68
2023-02-23T00:27:26.709Z,5.72
2023-02-23T00:30:00.999Z,6.50
2023-02-23T00:32:34.599Z,4.40
2023-02-23T00:35:06.027Z,6.38
2023-02-23T00:37:39.073Z,5.97
2023-02-23T00:40:16.027Z,5.53
2023-02-23T00:42:47.816Z,7.22
2023-02-23T00:45:19.227Z,6.75
2023-02-23T00:47:50.286Z,6.15
2023-02-23T00:50:21.381Z,6.13
2023-02-23T00:52:52.637Z,3.25
2023-02-23T00:57:54.424Z,5.10
2023-02-23T01:00:27.160Z,6.03
2023-02-23T01:02:59.121Z,4.57
2023-02-23T01:08:01.030Z,6.67
2023-02-23T01:10:32.466Z,5.47
2023-02-23T01:13:04.033Z,5.00
2023-02-23T01:15:35.440Z,5.90
2023-02-23T01:18:06.670Z,6.20
2023-02-23T01:20:38.217Z,4.30
2023-02-23T01:25:40.094Z,4.68
2023-02-23T01:28:12.612Z,4.68
2023-02-23T01:30:43.899Z,2.72
2023-02-23T01:33:15.523Z,5.15
2023-02-23T01:35:47.144Z,4.38
2023-02-23T01:38:18.056Z,6.55
2023-02-23T01:40:50.720Z,4.90
2023-02-23T01:43:27.509Z,5.63
2023-02-23T01:46:02.238Z,5.15
2023-02-23T01:48:42.215Z,4.95
2023-02-23T01:51:17.768Z,4.45
2023-02-23T01:54:03.091Z,3.60
2023-02-23T01:56:44.815Z,4.68
2023-02-23T01:59:17.013Z,5.53
2023-02-23T02:01:49.686Z,5.28
2023-02-23T02:04:22.214Z,4.55
2023-02-23T02:06:55.205Z,4.32
2023-02-23T02:09:29.611Z,5.38
2023-02-23T02:12:04.086Z,4.63
2023-02-23T02:14:35.807Z,3.63
2023-02-23T02:17:15.904Z,4.82
2023-02-23T02:20:34.263Z,4.18
2023-02-23T02:23:20.460Z,2.65
2023-02-23T02:26:39.246Z,5.95
2023-02-23T02:29:40.726Z,5.80
2023-02-23T02:32:25.544Z,1.35
2023-02-23T02:35:20.441Z,3.25
2023-02-23T02:38:05.178Z,4.57
2023-02-23T02:40:54.704Z,3.50
2023-02-23T02:43:52.348Z,3.67
2023-02-23T02:46:33.298Z,2.42
2023-02-23T02:49:20.910Z,2.40
2023-02-23T02:52:02.462Z,2.63
2023-02-23T02:57:05.818Z,2.85
2023-02-23T03:00:05.642Z,3.88
2023-02-23T03:02:58.494Z,2.20
2023-02-23T03:06:02.361Z,4.00
2023-02-23T03:09:06.722Z,4.43
2023-02-23T03:12:14.482Z,4.80
2023-02-23T03:15:32.576Z,3.63
2023-02-23T03:18:41.314Z,3.92
2023-02-23T03:21:38.246Z,4.90
2023-02-23T03:24:37.221Z,7.05
2023-02-23T03:27:43.752Z,4.65
2023-02-23T03:30:50.753Z,3.50
2023-02-23T03:33:50.710Z,4.38
2023-02-23T03:36:45.661Z,4.80
2023-02-23T03:39:53.546Z,3.28
2023-02-23T03:42:46.814Z,3.28
2023-02-23T03:45:39.491Z,3.00
2023-02-23T03:48:30.780Z,2.38
2023-02-23T03:51:23.540Z,1.75
2023-02-23T03:54:22.097Z,3.78
2023-02-23T03:57:12.673Z,3.90
2023-02-23T04:00:08.142Z,4.13
2023-02-23T04:03:03.884Z,3.08
2023-02-23T04:05:56.666Z,3.63
2023-02-23T04:08:58.254Z,8.57
2023-02-23T04:12:34.467Z,4.90
2023-02-23T04:15:27.058Z,2.80
2023-02-23T04:17:58.843Z,2.15
2023-02-23T04:20:29.969Z,2.85
2023-02-23T04:23:01.164Z,6.68
2023-02-23T04:25:33.132Z,3.97
2023-02-23T04:28:04.938Z,7.55
2023-02-23T04:33:06.519Z,3.60
2023-02-23T04:35:38.118Z,5.72
2023-02-23T04:38:09.713Z,3.53
2023-02-23T04:43:14.588Z,4.75
2023-02-23T04:45:46.623Z,5.13
2023-02-23T04:48:17.702Z,3.75
2023-02-23T04:50:48.910Z,4.45
2023-02-23T04:53:19.758Z,3.30
2023-02-23T04:55:51.120Z,4.18
2023-02-23T04:58:22.291Z,6.13
2023-02-23T05:00:53.380Z,3.13
2023-02-23T05:03:24.826Z,3.67
2023-02-23T05:05:56.192Z,3.90
2023-02-23T05:10:57.599Z,4.28
2023-02-23T05:13:28.758Z,4.20
2023-02-23T05:16:00.267Z,4.50
2023-02-23T05:18:31.696Z,3.97
2023-02-23T05:21:08.413Z,2.47
2023-02-23T05:23:40.066Z,2.55
2023-02-23T05:28:44.349Z,4.40
2023-02-23T05:31:15.629Z,4.45
2023-02-23T05:33:47.202Z,4.00
2023-02-23T05:38:50.603Z,3.45
2023-02-23T05:41:24.302Z,3.50
2023-02-23T05:43:57.020Z,2.80
2023-02-23T05:46:28.784Z,3.10
2023-02-23T05:49:01.593Z,2.20
2023-02-23T05:51:34.133Z,1.35
2023-02-23T05:54:05.066Z,2.13
2023-02-23T05:56:37.182Z,1.50
2023-02-23T05:59:08.112Z,3.95
2023-02-23T06:01:39.319Z,1.77
2023-02-23T06:04:10.342Z,4.43
2023-02-23T06:06:41.808Z,3.75
2023-02-23T06:09:13.048Z,3.67
2023-02-23T06:11:44.231Z,2.25
2023-02-23T06:14:15.473Z,2.90
2023-02-23T06:16:49.817Z,3.58
2023-02-23T06:19:20.884Z,2.97
2023-02-23T06:21:51.945Z,4.35
2023-02-23T06:24:23.022Z,2.28
2023-02-23T06:26:54.403Z,2.67
2023-02-23T06:29:25.578Z,3.20
2023-02-23T06:31:58.494Z,1.52
2023-02-23T06:34:31.161Z,3.15
2023-02-23T06:37:03.504Z,1.10
2023-02-23T06:39:34.745Z,1.92
2023-02-23T06:42:05.979Z,2.63
2023-02-23T06:44:38.645Z,2.75
2023-02-23T06:47:10.473Z,0.85
2023-02-23T06:49:42.027Z,2.22
2023-02-23T06:52:16.324Z,1.80
2023-02-23T06:54:47.314Z,1.08
2023-02-23T06:57:18.541Z,1.65
2023-02-23T06:59:49.453Z,1.08
2023-02-23T07:02:20.520Z,1.80
2023-02-23T07:04:51.744Z,3.08
2023-02-23T07:07:22.975Z,1.80
2023-02-23T07:09:54.004Z,2.92
2023-02-23T07:12:25.131Z,4.75
2023-02-23T07:14:56.373Z,3.80
2023-02-23T07:17:28.230Z,2.17
2023-02-23T07:19:59.822Z,2.42
2023-02-23T07:22:31.779Z,7.28
2023-02-23T07:25:02.839Z,2.58
2023-02-23T07:27:34.107Z,3.65
2023-02-23T07:30:05.850Z,3.78
2023-02-23T07:32:37.089Z,4.30
2023-02-23T07:35:12.672Z,2.53
2023-02-23T07:37:44.121Z,2.08
2023-02-23T07:40:15.809Z,2.42
2023-02-23T07:45:18.773Z,2.17
2023-02-23T07:47:50.331Z,3.05
2023-02-23T07:50:21.608Z,1.95
2023-02-23T07:52:53.698Z,1.73
2023-02-23T07:55:24.801Z,2.42
2023-02-23T07:57:56.254Z,2.25
2023-02-23T08:00:28.616Z,0.70
2023-02-23T08:02:59.657Z,1.15
2023-02-23T08:05:31.293Z,1.15
2023-02-23T08:08:02.537Z,1.90
2023-02-23T08:10:33.999Z,2.58
2023-02-23T08:13:05.364Z,2.22
2023-02-23T08:15:36.657Z,4.03
2023-02-23T08:18:08.040Z,2.05
2023-02-23T08:20:39.248Z,1.83
2023-02-23T08:23:10.255Z,2.53
2023-02-23T08:25:41.239Z,1.25
2023-02-23T08:28:12.809Z,3.30
2023-02-23T08:30:44.264Z,2.28
2023-02-23T08:33:15.406Z,0.82
2023-02-23T08:35:46.754Z,2.58
2023-02-23T08:38:19.690Z,2.00
2023-02-23T08:40:50.877Z,1.58
2023-02-23T08:43:22.330Z,2.88
2023-02-23T08:45:53.431Z,1.25
2023-02-23T08:48:25.815Z,1.13
2023-02-23T08:51:00.883Z,1.13
2023-02-23T08:53:32.254Z,1.38
2023-02-23T08:56:05.409Z,1.77
2023-02-23T08:58:37.297Z,2.25
2023-02-23T09:01:08.600Z,1.20
2023-02-23T09:03:40.685Z,0.95
2023-02-23T09:06:15.224Z,2.30
2023-02-23T09:08:46.685Z,1.63
2023-02-23T09:11:18.172Z,1.30
2023-02-23T09:13:49.516Z,1.50
2023-02-23T09:16:21.060Z,1.20
2023-02-23T09:18:53.270Z,1.67
2023-02-23T09:21:26.479Z,1.33
2023-02-23T09:23:57.875Z,2.50
2023-02-23T09:26:30.790Z,1.98
2023-02-23T09:29:02.894Z,1.85
2023-02-23T09:31:34.320Z,2.85
2023-02-23T09:34:05.592Z,3.00
2023-02-23T09:36:36.523Z,0.93
2023-02-23T09:39:07.705Z,2.72
2023-02-23T09:42:05.584Z,3.20
2023-02-23T09:44:48.085Z,0.28
2023-02-23T09:47:31.157Z,0.65
2023-02-23T09:50:06.431Z,2.75
2023-02-23T09:52:47.600Z,0.45
2023-02-23T09:55:19.252Z,0.70
2023-02-23T09:57:51.657Z,1.42
2023-02-23T10:00:31.221Z,2.35
2023-02-23T10:03:24.467Z,1.02
2023-02-23T10:06:02.740Z,1.55
2023-02-23T10:08:49.173Z,2.08
2023-02-23T10:11:47.280Z,3.15
2023-02-23T10:14:27.377Z,3.08
2023-02-23T10:17:39.836Z,1.60
2023-02-23T10:20:32.389Z,0.50
2023-02-23T10:23:09.439Z,0.32
2023-02-23T10:25:45.600Z,2.40
2023-02-23T10:28:23.275Z,0.35
2023-02-23T10:30:56.528Z,0.65
2023-02-23T10:33:37.750Z,0.80
2023-02-23T10:36:37.057Z,1.15
2023-02-23T10:39:09.689Z,7.97
2023-02-23T10:41:41.601Z,1.85
2023-02-23T10:46:58.756Z,1.45
2023-02-23T10:49:46.543Z,2.10
2023-02-23T10:52:41.555Z,2.45
2023-02-23T10:55:31.292Z,0.98
2023-02-23T10:58:18.233Z,1.00
2023-02-23T11:01:05.094Z,0.82
2023-02-23T11:03:39.698Z,0.98
2023-02-23T11:06:42.125Z,1.40
2023-02-23T11:09:47.018Z,1.15
2023-02-23T11:12:26.538Z,1.83
2023-02-23T11:14:59.770Z,1.52
2023-02-23T11:17:35.795Z,1.17
2023-02-23T11:20:08.573Z,0.68
2023-02-23T11:22:43.808Z,1.00
2023-02-23T11:25:35.217Z,2.53
2023-02-23T11:28:06.160Z,2.78
2023-02-23T11:30:44.375Z,1.08
2023-02-23T11:33:21.600Z,2.35
2023-02-23T11:36:01.222Z,2.70
2023-02-23T11:38:33.997Z,0.95
2023-02-23T11:41:23.361Z,0.40
2023-02-23T11:43:59.978Z,1.75
2023-02-23T11:46:32.800Z,2.00
2023-02-23T11:49:20.407Z,2.17
2023-02-23T11:51:56.345Z,1.27
2023-02-23T11:54:30.396Z,3.08
2023-02-23T11:57:04.003Z,1.60
2023-02-23T11:59:41.098Z,1.08
2023-02-23T12:02:26.346Z,1.73
2023-02-23T12:05:16.742Z,1.83
2023-02-23T12:08:05.086Z,2.22
2023-02-23T12:10:46.275Z,1.40
2023-02-23T12:13:23.198Z,2.28
2023-02-23T12:16:15.626Z,0.38
2023-02-23T12:21:37.429Z,1.67
2023-02-23T12:24:36.176Z,2.70
2023-02-23T12:27:18.781Z,2.00
2023-02-23T12:30:01.561Z,0.65
2023-02-23T12:32:52.707Z,1.88
2023-02-23T12:35:47.013Z,1.65
2023-02-23T12:38:32.278Z,1.23
2023-02-23T12:41:19.595Z,1.08
2023-02-23T12:43:59.748Z,1.23
2023-02-23T12:46:37.863Z,1.75
2023-02-23T12:49:18.458Z,1.88
2023-02-23T12:52:16.202Z,2.53
2023-02-23T12:54:50.528Z,1.33
2023-02-23T12:57:43.994Z,1.25
2023-02-23T13:00:33.307Z,1.55
2023-02-23T13:03:18.891Z,1.48
2023-02-23T13:05:59.188Z,2.10
2023-02-23T13:09:10.810Z,2.28
2023-02-23T13:12:22.422Z,1.03
2023-02-23T13:14:59.963Z,1.67
2023-02-23T13:17:41.897Z,1.35
2023-02-23T13:20:22.943Z,1.38
2023-02-23T13:23:14.075Z,1.67
2023-02-23T13:26:02.045Z,3.30
2023-02-23T13:28:39.492Z,3.67
2023-02-23T13:31:40.700Z,2.50
2023-02-23T13:34:30.106Z,4.53
2023-02-23T13:37:03.499Z,1.88
2023-02-23T13:39:57.402Z,3.20
2023-02-23T13:42:39.212Z,3.28
2023-02-23T13:45:41.044Z,3.97
2023-02-23T13:48:21.085Z,2.33
2023-02-23T13:51:00.996Z,3.75
2023-02-23T13:54:01.281Z,1.92
2023-02-23T13:56:44.505Z,2.60
2023-02-23T13:59:21.152Z,3.13
2023-02-23T14:01:57.314Z,2.63
2023-02-23T14:04:47.092Z,4.15
2023-02-23T14:07:28.046Z,2.72
2023-02-23T14:10:08.271Z,1.60
2023-02-23T14:12:45.261Z,2.92
2023-02-23T14:15:42.987Z,2.03
2023-02-23T14:18:34.697Z,2.35
2023-02-23T14:21:11.892Z,3.15
2023-02-23T14:24:06.602Z,2.30
2023-02-23T14:26:44.653Z,2.30
2023-02-23T14:29:23.002Z,3.75
2023-02-23T14:32:12.772Z,3.20
2023-02-23T14:35:04.001Z,2.22
2023-02-23T14:37:39.502Z,2.50
2023-02-23T14:40:23.565Z,2.05
2023-02-23T14:42:57.834Z,1.02
2023-02-23T14:45:33.843Z,3.20
2023-02-23T14:48:09.023Z,2.75
2023-02-23T14:50:40.885Z,2.83
2023-02-23T14:53:38.156Z,3.58
2023-02-23T14:56:26.177Z,3.22
2023-02-23T15:01:40.149Z,2.92
2023-02-23T15:04:16.425Z,4.78
2023-02-23T15:06:50.466Z,2.00
2023-02-23T15:09:45.113Z,2.33
2023-02-23T15:12:24.296Z,4.00
2023-02-23T15:15:03.340Z,1.75
2023-02-23T15:17:35.996Z,3.03
2023-02-23T15:23:04.932Z,2.38
2023-02-23T15:25:40.130Z,3.00
2023-02-23T15:28:34.435Z,2.55
2023-02-23T15:31:10.422Z,1.35
2023-02-23T15:33:44.033Z,2.75
2023-02-23T15:36:36.119Z,4.07
2023-02-23T15:39:08.916Z,1.00
2023-02-23T15:41:41.324Z,4.22
2023-02-23T15:44:18.422Z,3.45
2023-02-23T15:46:54.528Z,3.90
2023-02-23T15:49:29.912Z,2.55
2023-02-23T15:52:08.126Z,3.60
2023-02-23T15:55:01.499Z,1.23
2023-02-23T15:57:36.441Z,1.95
2023-02-23T16:00:26.106Z,2.20
2023-02-23T16:02:59.261Z,3.40
2023-02-23T16:05:46.652Z,6.05
2023-02-23T16:08:28.600Z,5.45
2023-02-23T16:11:17.468Z,3.63
2023-02-23T16:13:49.166Z,3.08
2023-02-23T16:16:21.454Z,3.72
2023-02-23T16:19:02.737Z,3.92
2023-02-23T16:21:33.899Z,3.50
2023-02-23T16:24:10.520Z,2.75
2023-02-23T16:27:03.575Z,4.40
2023-02-23T16:29:43.001Z,3.75
2023-02-23T16:32:20.167Z,0.63
2023-02-23T16:34:56.315Z,3.28
2023-02-23T16:37:29.483Z,3.95
2023-02-23T16:40:01.629Z,1.70
2023-02-23T16:42:36.868Z,3.78
2023-02-23T16:45:09.369Z,2.17
2023-02-23T16:47:50.818Z,5.13
2023-02-23T16:50:22.690Z,3.97
2023-02-23T16:52:55.510Z,4.35
2023-02-23T16:55:30.807Z,2.10
2023-02-23T16:58:05.745Z,5.70
2023-02-23T17:00:37.019Z,2.17
2023-02-23T17:03:10.737Z,3.72
2023-02-23T17:05:41.744Z,1.60
2023-02-23T17:08:13.103Z,2.63
2023-02-23T17:10:45.456Z,3.45
2023-02-23T17:13:21.584Z,5.35
2023-02-23T17:15:55.362Z,4.40
2023-02-23T17:18:29.703Z,3.78
2023-02-23T17:21:03.096Z,4.18
2023-02-23T17:23:40.539Z,3.28
2023-02-23T17:26:13.095Z,2.97
2023-02-23T17:28:44.711Z,3.03
2023-02-23T17:31:17.968Z,3.60
2023-02-23T17:33:49.813Z,2.85
2023-02-23T17:36:21.106Z,4.57
2023-02-23T17:38:52.281Z,3.90
2023-02-23T17:41:23.772Z,4.13
2023-02-23T17:43:55.235Z,5.13
2023-02-23T17:46:26.635Z,4.55
2023-02-23T17:48:58.256Z,4.72
2023-02-23T17:51:29.145Z,4.53
2023-02-23T17:54:00.439Z,4.70
2023-02-23T17:56:33.098Z,3.78
2023-02-23T17:59:04.469Z,3.65
2023-02-23T18:01:35.396Z,4.45
2023-02-23T18:04:06.880Z,5.45
2023-02-23T18:06:38.144Z,7.20
2023-02-23T18:09:09.770Z,6.25
2023-02-23T18:11:40.924Z,9.55
2023-02-23T18:14:15.278Z,5.93
2023-02-23T18:16:47.498Z,4.15
2023-02-23T18:19:18.502Z,6.35
2023-02-23T18:21:49.547Z,6.72
2023-02-23T18:24:20.512Z,7.23
2023-02-23T18:26:51.932Z,4.72
2023-02-23T18:29:23.038Z,5.28
2023-02-23T18:34:27.212Z,5.20
2023-02-23T18:37:03.702Z,5.85
2023-02-23T18:39:35.179Z,4.03
2023-02-23T18:42:06.467Z,4.25
2023-02-23T18:44:37.633Z,4.32
2023-02-23T18:47:08.741Z,6.57
2023-02-23T18:49:39.716Z,5.25
2023-02-23T18:52:13.606Z,4.72
2023-02-23T18:54:44.837Z,7.18
2023-02-23T18:57:17.519Z,6.60
2023-02-23T18:59:49.094Z,6.57
2023-02-23T19:02:20.250Z,5.55
2023-02-23T19:04:51.217Z,6.03
2023-02-23T19:07:22.431Z,6.53
2023-02-23T19:09:53.434Z,6.32
2023-02-23T19:12:24.306Z,5.53
2023-02-23T19:14:55.432Z,5.45
2023-02-23T19:17:27.844Z,6.77
2023-02-23T19:19:59.071Z,5.30
2023-02-23T19:22:33.464Z,3.40
2023-02-23T19:25:06.672Z,5.82
2023-02-23T19:27:37.894Z,5.43
2023-02-23T19:30:11.448Z,8.70
2023-02-23T19:32:44.186Z,5.47
2023-02-23T19:37:54.367Z,3.65
2023-02-23T19:40:30.571Z,7.65
2023-02-23T19:43:01.782Z,2.33
2023-02-23T19:45:32.828Z,6.23
2023-02-23T19:48:04.242Z,5.20
2023-02-23T19:50:37.353Z,6.13
2023-02-23T19:53:08.671Z,7.60
2023-02-23T19:55:43.071Z,4.80
2023-02-23T19:58:14.667Z,6.97
2023-02-23T20:00:46.697Z,4.53
2023-02-23T20:03:21.318Z,5.18
2023-02-23T20:05:52.435Z,4.35
2023-02-23T20:08:27.746Z,5.75
2023-02-23T20:10:59.220Z,5.28
2023-02-23T20:13:30.427Z,3.17
2023-02-23T20:16:10.622Z,4.10
2023-02-23T20:18:42.911Z,3.33
2023-02-23T20:21:19.343Z,6.38
2023-02-23T20:23:51.356Z,3.95
2023-02-23T20:26:36.711Z,4.95
2023-02-23T20:29:12.562Z,7.65
2023-02-23T20:31:52.018Z,5.68
2023-02-23T20:34:25.259Z,4.45
2023-02-23T20:36:57.194Z,4.75
2023-02-23T20:39:28.608Z,3.80
2023-02-23T20:44:31.700Z,3.80
2023-02-23T20:47:03.322Z,5.03
2023-02-23T20:49:34.199Z,4.47
2023-02-23T20:52:06.281Z,4.28
2023-02-23T20:54:38.153Z,4.35
2023-02-23T20:59:44.542Z,4.72
2023-02-23T21:02:16.612Z,6.20
2023-02-23T21:04:48.040Z,5.20
2023-02-23T21:07:19.379Z,3.13
2023-02-23T21:09:50.453Z,5.30
2023-02-23T21:12:21.729Z,4.38
2023-02-23T21:14:52.879Z,8.05
2023-02-23T21:17:24.756Z,6.60
2023-02-23T21:19:55.700Z,5.10
2023-02-23T21:22:26.930Z,5.95
2023-02-23T21:24:58.310Z,6.60
2023-02-23T21:27:29.983Z,4.95
2023-02-23T21:32:33.807Z,5.03
2023-02-23T21:35:05.795Z,6.13
2023-02-23T21:37:37.246Z,5.82
2023-02-23T21:40:11.562Z,5.97
2023-02-23T21:42:43.796Z,4.88
2023-02-23T21:45:16.031Z,4.32
2023-02-23T21:50:20.364Z,3.45
2023-02-23T21:52:55.467Z,3.35
2023-02-23T21:55:26.884Z,3.63
2023-02-23T21:57:59.527Z,5.53
2023-02-23T22:00:35.065Z,2.97
2023-02-23T22:03:06.231Z,3.75
2023-02-23T22:05:37.111Z,3.67
2023-02-23T22:08:08.102Z,2.83
2023-02-23T22:10:39.518Z,4.97
2023-02-23T22:13:11.038Z,4.43
2023-02-23T22:15:42.019Z,3.92
2023-02-23T22:18:15.677Z,3.28
2023-02-23T22:20:47.396Z,3.30
2023-02-23T22:23:19.351Z,2.88
2023-02-23T22:28:22.402Z,2.35
2023-02-23T22:30:53.668Z,3.50
2023-02-23T22:33:25.832Z,2.60
2023-02-23T22:35:58.633Z,4.13
2023-02-23T22:38:30.098Z,3.17
2023-02-23T22:41:01.464Z,4.30
2023-02-23T22:43:35.500Z,2.95
2023-02-23T22:46:08.987Z,2.30
2023-02-23T22:48:40.189Z,2.25
2023-02-23T22:51:13.019Z,4.57
2023-02-23T22:53:44.811Z,2.88
2023-02-23T22:56:16.191Z,3.05
2023-02-23T22:58:51.081Z,4.47
2023-02-23T23:01:22.246Z,2.70
2023-02-23T23:06:24.329Z,4.28
2023-02-23T23:08:59.613Z,4.07
2023-02-23T23:11:31.438Z,2.47
2023-02-23T23:16:53.001Z,4.00
2023-02-23T23:19:25.394Z,1.95
2023-02-23T23:21:57.572Z,1.90
2023-02-23T23:24:28.892Z,2.80
2023-02-23T23:27:09.611Z,2.70
2023-02-23T23:29:40.502Z,2.88
2023-02-23T23:32:11.549Z,3.35
2023-02-23T23:34:42.989Z,2.33
2023-02-23T23:39:46.816Z,3.63
2023-02-23T23:42:17.781Z,1.50
2023-02-23T23:44:49.050Z,2.00
2023-02-23T23:47:20.225Z,3.65
2023-02-23T23:49:51.512Z,1.42
2023-02-23T23:52:22.523Z,2.35
2023-02-23T23:54:53.489Z,1.77
2023-02-23T23:57:24.626Z,1.20
2023-02-23T23:59:57.822Z,1.63
